sensor_id;sensor_type;location;lat;lon;timestamp;P1;durP1;ratioP1;P2;durP2;ratioP2
57800;SDS011;43627;42.728;23.256;2023-05-02T00:00:54;3.78;;;2.58;;
57800;SDS011;43627;42.728;23.256;2023-05-02T00:03:20;4.22;;;2.45;;
57800;SDS011;43627;42.728;23.256;2023-05-02T00:05:48;4.10;;;2.17;;
57800;SDS011;43627;42.728;23.256;2023-05-02T00:08:15;4.30;;;2.40;;
57800;SDS011;43627;42.728;23.256;2023-05-02T00:10:42;2.53;;;2.22;;
57800;SDS011;43627;42.728;23.256;2023-05-02T00:13:08;4.25;;;2.22;;
57800;SDS011;43627;42.728;23.256;2023-05-02T00:15:35;4.95;;;2.55;;
57800;SDS011;43627;42.728;23.256;2023-05-02T00:18:02;3.60;;;2.40;;
57800;SDS011;43627;42.728;23.256;2023-05-02T00:20:29;5.15;;;2.67;;
57800;SDS011;43627;42.728;23.256;2023-05-02T00:22:55;4.95;;;2.35;;
57800;SDS011;43627;42.728;23.256;2023-05-02T00:25:22;3.65;;;2.65;;
57800;SDS011;43627;42.728;23.256;2023-05-02T00:27:49;2.35;;;2.15;;
57800;SDS011;43627;42.728;23.256;2023-05-02T00:30:16;4.35;;;2.53;;
57800;SDS011;43627;42.728;23.256;2023-05-02T00:32:43;4.85;;;2.88;;
57800;SDS011;43627;42.728;23.256;2023-05-02T00:35:10;3.85;;;2.63;;
57800;SDS011;43627;42.728;23.256;2023-05-02T00:37:37;6.97;;;2.78;;
57800;SDS011;43627;42.728;23.256;2023-05-02T00:40:04;4.13;;;3.08;;
57800;SDS011;43627;42.728;23.256;2023-05-02T00:42:33;5.30;;;2.95;;
57800;SDS011;43627;42.728;23.256;2023-05-02T00:45:04;5.45;;;3.55;;
57800;SDS011;43627;42.728;23.256;2023-05-02T00:47:32;4.00;;;3.05;;
57800;SDS011;43627;42.728;23.256;2023-05-02T00:49:59;4.25;;;3.40;;
57800;SDS011;43627;42.728;23.256;2023-05-02T00:52:27;4.95;;;2.95;;
57800;SDS011;43627;42.728;23.256;2023-05-02T00:54:54;4.40;;;3.00;;
57800;SDS011;43627;42.728;23.256;2023-05-02T00:57:21;3.33;;;2.30;;
57800;SDS011;43627;42.728;23.256;2023-05-02T00:59:48;4.57;;;2.90;;
57800;SDS011;43627;42.728;23.256;2023-05-02T01:05:32;3.63;;;2.60;;
57800;SDS011;43627;42.728;23.256;2023-05-02T01:08:12;2.65;;;2.03;;
57800;SDS011;43627;42.728;23.256;2023-05-02T01:10:50;4.82;;;2.83;;
57800;SDS011;43627;42.728;23.256;2023-05-02T01:13:27;2.58;;;2.38;;
57800;SDS011;43627;42.728;23.256;2023-05-02T01:15:57;3.38;;;1.88;;
57800;SDS011;43627;42.728;23.256;2023-05-02T01:18:27;2.65;;;2.03;;
57800;SDS011;43627;42.728;23.256;2023-05-02T01:21:03;2.20;;;1.98;;
57800;SDS011;43627;42.728;23.256;2023-05-02T01:23:51;2.17;;;1.98;;
57800;SDS011;43627;42.728;23.256;2023-05-02T01:28:56;5.22;;;2.40;;
57800;SDS011;43627;42.728;23.256;2023-05-02T01:31:25;4.07;;;2.65;;
57800;SDS011;43627;42.728;23.256;2023-05-02T01:33:55;2.85;;;2.17;;
57800;SDS011;43627;42.728;23.256;2023-05-02T01:36:24;2.38;;;2.15;;
57800;SDS011;43627;42.728;23.256;2023-05-02T01:38:54;5.68;;;2.25;;
57800;SDS011;43627;42.728;23.256;2023-05-02T01:41:25;2.05;;;1.85;;
57800;SDS011;43627;42.728;23.256;2023-05-02T01:43:55;2.67;;;1.88;;
57800;SDS011;43627;42.728;23.256;2023-05-02T01:46:25;3.90;;;2.42;;
57800;SDS011;43627;42.728;23.256;2023-05-02T01:48:53;2.35;;;2.15;;
57800;SDS011;43627;42.728;23.256;2023-05-02T01:51:25;3.03;;;2.15;;
57800;SDS011;43627;42.728;23.256;2023-05-02T01:54:00;2.15;;;1.98;;
57800;SDS011;43627;42.728;23.256;2023-05-02T01:56:31;4.72;;;2.15;;
57800;SDS011;43627;42.728;23.256;2023-05-02T01:59:01;3.17;;;2.40;;
57800;SDS011;43627;42.728;23.256;2023-05-02T02:01:40;4.18;;;2.70;;
57800;SDS011;43627;42.728;23.256;2023-05-02T02:04:10;3.17;;;2.65;;
57800;SDS011;43627;42.728;23.256;2023-05-02T02:06:40;3.50;;;2.40;;
57800;SDS011;43627;42.728;23.256;2023-05-02T02:09:12;2.55;;;2.15;;
57800;SDS011;43627;42.728;23.256;2023-05-02T02:11:42;3.08;;;2.25;;
57800;SDS011;43627;42.728;23.256;2023-05-02T02:14:24;4.82;;;2.17;;
57800;SDS011;43627;42.728;23.256;2023-05-02T02:16:53;3.83;;;2.15;;
57800;SDS011;43627;42.728;23.256;2023-05-02T02:19:21;2.72;;;2.10;;
57800;SDS011;43627;42.728;23.256;2023-05-02T02:21:49;3.85;;;2.88;;
57800;SDS011;43627;42.728;23.256;2023-05-02T02:24:17;4.88;;;3.08;;
57800;SDS011;43627;42.728;23.256;2023-05-02T02:26:47;3.97;;;3.05;;
57800;SDS011;43627;42.728;23.256;2023-05-02T02:29:14;3.67;;;2.60;;
57800;SDS011;43627;42.728;23.256;2023-05-02T02:31:41;4.22;;;2.70;;
57800;SDS011;43627;42.728;23.256;2023-05-02T02:34:08;4.03;;;2.70;;
57800;SDS011;43627;42.728;23.256;2023-05-02T02:36:35;3.80;;;3.00;;
57800;SDS011;43627;42.728;23.256;2023-05-02T02:39:34;2.45;;;2.17;;
57800;SDS011;43627;42.728;23.256;2023-05-02T02:52:47;5.28;;;3.20;;
57800;SDS011;43627;42.728;23.256;2023-05-02T02:55:26;4.30;;;2.83;;
57800;SDS011;43627;42.728;23.256;2023-05-02T03:00:47;4.22;;;2.88;;
57800;SDS011;43627;42.728;23.256;2023-05-02T03:03:15;4.20;;;3.22;;
57800;SDS011;43627;42.728;23.256;2023-05-02T03:05:44;6.25;;;3.40;;
57800;SDS011;43627;42.728;23.256;2023-05-02T03:08:11;6.05;;;3.53;;
57800;SDS011;43627;42.728;23.256;2023-05-02T03:10:38;4.68;;;3.35;;
57800;SDS011;43627;42.728;23.256;2023-05-02T03:13:05;6.43;;;3.80;;
57800;SDS011;43627;42.728;23.256;2023-05-02T03:18:13;5.67;;;3.93;;
57800;SDS011;43627;42.728;23.256;2023-05-02T03:20:40;8.27;;;3.80;;
57800;SDS011;43627;42.728;23.256;2023-05-02T03:23:07;7.40;;;4.00;;
57800;SDS011;43627;42.728;23.256;2023-05-02T03:25:34;7.60;;;4.45;;
57800;SDS011;43627;42.728;23.256;2023-05-02T03:28:01;10.10;;;5.53;;
57800;SDS011;43627;42.728;23.256;2023-05-02T03:30:28;9.65;;;4.40;;
57800;SDS011;43627;42.728;23.256;2023-05-02T03:32:55;8.73;;;4.50;;
57800;SDS011;43627;42.728;23.256;2023-05-02T03:35:22;6.32;;;4.07;;
57800;SDS011;43627;42.728;23.256;2023-05-02T03:37:48;6.88;;;4.25;;
57800;SDS011;43627;42.728;23.256;2023-05-02T03:40:16;9.57;;;4.22;;
57800;SDS011;43627;42.728;23.256;2023-05-02T03:42:47;6.18;;;3.97;;
57800;SDS011;43627;42.728;23.256;2023-05-02T03:45:13;6.85;;;4.82;;
57800;SDS011;43627;42.728;23.256;2023-05-02T03:47:40;6.03;;;4.30;;
57800;SDS011;43627;42.728;23.256;2023-05-02T03:50:07;6.75;;;4.03;;
57800;SDS011;43627;42.728;23.256;2023-05-02T03:52:34;5.22;;;4.10;;
57800;SDS011;43627;42.728;23.256;2023-05-02T03:55:01;8.68;;;3.70;;
57800;SDS011;43627;42.728;23.256;2023-05-02T03:57:31;4.93;;;3.50;;
57800;SDS011;43627;42.728;23.256;2023-05-02T03:59:58;5.25;;;3.55;;
57800;SDS011;43627;42.728;23.256;2023-05-02T04:02:26;3.67;;;2.50;;
57800;SDS011;43627;42.728;23.256;2023-05-02T04:04:53;5.20;;;2.58;;
57800;SDS011;43627;42.728;23.256;2023-05-02T04:07:20;2.10;;;1.60;;
57800;SDS011;43627;42.728;23.256;2023-05-02T04:09:46;1.98;;;1.77;;
57800;SDS011;43627;42.728;23.256;2023-05-02T04:12:14;1.58;;;1.23;;
57800;SDS011;43627;42.728;23.256;2023-05-02T04:14:41;3.45;;;1.58;;
57800;SDS011;43627;42.728;23.256;2023-05-02T04:17:07;2.38;;;1.73;;
57800;SDS011;43627;42.728;23.256;2023-05-02T04:19:34;1.55;;;1.15;;
57800;SDS011;43627;42.728;23.256;2023-05-02T04:22:01;6.55;;;1.88;;
57800;SDS011;43627;42.728;23.256;2023-05-02T04:24:28;1.05;;;0.95;;
57800;SDS011;43627;42.728;23.256;2023-05-02T04:26:55;1.60;;;1.10;;
57800;SDS011;43627;42.728;23.256;2023-05-02T04:29:22;3.75;;;1.90;;
57800;SDS011;43627;42.728;23.256;2023-05-02T04:31:48;2.90;;;1.55;;
57800;SDS011;43627;42.728;23.256;2023-05-02T04:34:16;5.18;;;1.48;;
57800;SDS011;43627;42.728;23.256;2023-05-02T04:36:46;11.27;;;1.70;;
57800;SDS011;43627;42.728;23.256;2023-05-02T04:39:13;1.60;;;1.02;;
57800;SDS011;43627;42.728;23.256;2023-05-02T04:41:39;1.60;;;1.10;;
57800;SDS011;43627;42.728;23.256;2023-05-02T04:44:07;2.25;;;1.58;;
57800;SDS011;43627;42.728;23.256;2023-05-02T04:46:33;2.50;;;1.50;;
57800;SDS011;43627;42.728;23.256;2023-05-02T04:49:00;6.35;;;2.33;;
57800;SDS011;43627;42.728;23.256;2023-05-02T04:51:27;2.78;;;1.63;;
57800;SDS011;43627;42.728;23.256;2023-05-02T04:53:54;1.73;;;1.40;;
57800;SDS011;43627;42.728;23.256;2023-05-02T04:56:21;1.45;;;1.35;;
57800;SDS011;43627;42.728;23.256;2023-05-02T04:58:47;2.55;;;1.33;;
57800;SDS011;43627;42.728;23.256;2023-05-02T05:01:14;1.95;;;1.45;;
57800;SDS011;43627;42.728;23.256;2023-05-02T05:03:41;2.22;;;1.70;;
57800;SDS011;43627;42.728;23.256;2023-05-02T05:06:08;1.17;;;0.88;;
57800;SDS011;43627;42.728;23.256;2023-05-02T05:08:35;1.45;;;1.05;;
57800;SDS011;43627;42.728;23.256;2023-05-02T05:11:02;1.77;;;1.13;;
57800;SDS011;43627;42.728;23.256;2023-05-02T05:13:30;1.05;;;0.75;;
57800;SDS011;43627;42.728;23.256;2023-05-02T05:15:57;3.42;;;1.15;;
57800;SDS011;43627;42.728;23.256;2023-05-02T05:18:24;3.85;;;1.58;;
57800;SDS011;43627;42.728;23.256;2023-05-02T05:20:51;0.70;;;0.70;;
57800;SDS011;43627;42.728;23.256;2023-05-02T05:23:17;1.95;;;1.50;;
57800;SDS011;43627;42.728;23.256;2023-05-02T05:25:44;1.55;;;0.88;;
57800;SDS011;43627;42.728;23.256;2023-05-02T05:28:11;1.27;;;0.90;;
57800;SDS011;43627;42.728;23.256;2023-05-02T05:30:38;0.80;;;0.70;;
57800;SDS011;43627;42.728;23.256;2023-05-02T05:33:05;1.33;;;1.10;;
57800;SDS011;43627;42.728;23.256;2023-05-02T05:35:31;0.73;;;0.73;;
57800;SDS011;43627;42.728;23.256;2023-05-02T05:37:58;1.10;;;0.93;;
57800;SDS011;43627;42.728;23.256;2023-05-02T05:40:25;0.80;;;0.75;;
57800;SDS011;43627;42.728;23.256;2023-05-02T05:42:52;2.45;;;1.15;;
57800;SDS011;43627;42.728;23.256;2023-05-02T05:45:19;1.42;;;0.63;;
57800;SDS011;43627;42.728;23.256;2023-05-02T05:47:45;1.60;;;0.90;;
57800;SDS011;43627;42.728;23.256;2023-05-02T05:50:12;0.85;;;0.80;;
57800;SDS011;43627;42.728;23.256;2023-05-02T05:52:39;1.23;;;0.80;;
57800;SDS011;43627;42.728;23.256;2023-05-02T05:55:06;2.00;;;1.13;;
57800;SDS011;43627;42.728;23.256;2023-05-02T05:57:33;1.98;;;0.80;;
57800;SDS011;43627;42.728;23.256;2023-05-02T06:00:00;1.35;;;0.93;;
57800;SDS011;43627;42.728;23.256;2023-05-02T06:02:27;1.48;;;1.05;;
57800;SDS011;43627;42.728;23.256;2023-05-02T06:04:54;1.65;;;1.35;;
57800;SDS011;43627;42.728;23.256;2023-05-02T06:07:21;1.10;;;0.80;;
57800;SDS011;43627;42.728;23.256;2023-05-02T06:09:48;0.50;;;0.47;;
57800;SDS011;43627;42.728;23.256;2023-05-02T06:12:14;1.83;;;0.70;;
57800;SDS011;43627;42.728;23.256;2023-05-02T06:14:41;0.75;;;0.70;;
57800;SDS011;43627;42.728;23.256;2023-05-02T06:17:08;1.13;;;0.70;;
57800;SDS011;43627;42.728;23.256;2023-05-02T06:19:35;1.00;;;0.80;;
57800;SDS011;43627;42.728;23.256;2023-05-02T06:22:02;1.25;;;1.10;;
57800;SDS011;43627;42.728;23.256;2023-05-02T06:24:28;1.00;;;0.90;;
57800;SDS011;43627;42.728;23.256;2023-05-02T06:26:56;0.63;;;0.50;;
57800;SDS011;43627;42.728;23.256;2023-05-02T06:29:24;0.93;;;0.80;;
57800;SDS011;43627;42.728;23.256;2023-05-02T06:31:53;0.93;;;0.88;;
57800;SDS011;43627;42.728;23.256;2023-05-02T06:34:21;0.93;;;0.73;;
57800;SDS011;43627;42.728;23.256;2023-05-02T06:36:48;1.35;;;0.90;;
57800;SDS011;43627;42.728;23.256;2023-05-02T06:39:20;1.02;;;0.90;;
57800;SDS011;43627;42.728;23.256;2023-05-02T06:41:47;1.05;;;0.90;;
57800;SDS011;43627;42.728;23.256;2023-05-02T06:44:14;2.60;;;0.73;;
57800;SDS011;43627;42.728;23.256;2023-05-02T06:46:42;0.75;;;0.60;;
57800;SDS011;43627;42.728;23.256;2023-05-02T06:49:08;3.33;;;0.80;;
57800;SDS011;43627;42.728;23.256;2023-05-02T06:51:36;1.77;;;0.90;;
57800;SDS011;43627;42.728;23.256;2023-05-02T06:54:02;0.65;;;0.60;;
57800;SDS011;43627;42.728;23.256;2023-05-02T06:56:29;6.13;;;1.75;;
57800;SDS011;43627;42.728;23.256;2023-05-02T06:58:56;0.63;;;0.63;;
57800;SDS011;43627;42.728;23.256;2023-05-02T07:01:23;1.00;;;0.77;;
57800;SDS011;43627;42.728;23.256;2023-05-02T07:03:50;1.08;;;0.98;;
57800;SDS011;43627;42.728;23.256;2023-05-02T07:06:17;1.30;;;0.60;;
57800;SDS011;43627;42.728;23.256;2023-05-02T07:08:44;0.70;;;0.68;;
57800;SDS011;43627;42.728;23.256;2023-05-02T07:11:13;2.60;;;0.73;;
57800;SDS011;43627;42.728;23.256;2023-05-02T07:13:40;4.57;;;1.10;;
57800;SDS011;43627;42.728;23.256;2023-05-02T07:16:06;3.50;;;1.20;;
57800;SDS011;43627;42.728;23.256;2023-05-02T07:18:33;0.60;;;0.60;;
57800;SDS011;43627;42.728;23.256;2023-05-02T07:21:03;1.25;;;0.70;;
57800;SDS011;43627;42.728;23.256;2023-05-02T07:23:30;0.60;;;0.60;;
57800;SDS011;43627;42.728;23.256;2023-05-02T07:25:57;0.80;;;0.73;;
57800;SDS011;43627;42.728;23.256;2023-05-02T07:28:29;0.73;;;0.70;;
57800;SDS011;43627;42.728;23.256;2023-05-02T07:30:56;1.02;;;0.73;;
57800;SDS011;43627;42.728;23.256;2023-05-02T07:33:23;1.40;;;0.82;;
57800;SDS011;43627;42.728;23.256;2023-05-02T07:35:50;0.40;;;0.40;;
57800;SDS011;43627;42.728;23.256;2023-05-02T07:38:17;0.73;;;0.73;;
57800;SDS011;43627;42.728;23.256;2023-05-02T07:40:43;0.43;;;0.43;;
57800;SDS011;43627;42.728;23.256;2023-05-02T07:43:12;1.52;;;0.70;;
57800;SDS011;43627;42.728;23.256;2023-05-02T07:45:40;0.95;;;0.80;;
57800;SDS011;43627;42.728;23.256;2023-05-02T07:48:07;1.05;;;0.75;;
57800;SDS011;43627;42.728;23.256;2023-05-02T07:50:34;6.60;;;1.25;;
57800;SDS011;43627;42.728;23.256;2023-05-02T07:53:00;1.58;;;0.63;;
57800;SDS011;43627;42.728;23.256;2023-05-02T07:55:27;0.80;;;0.65;;
57800;SDS011;43627;42.728;23.256;2023-05-02T07:57:55;4.97;;;1.38;;
57800;SDS011;43627;42.728;23.256;2023-05-02T08:00:22;0.70;;;0.70;;
57800;SDS011;43627;42.728;23.256;2023-05-02T08:02:49;0.70;;;0.70;;
57800;SDS011;43627;42.728;23.256;2023-05-02T08:05:16;0.63;;;0.60;;
57800;SDS011;43627;42.728;23.256;2023-05-02T08:07:43;0.95;;;0.85;;
57800;SDS011;43627;42.728;23.256;2023-05-02T08:10:10;1.20;;;0.70;;
57800;SDS011;43627;42.728;23.256;2023-05-02T08:12:38;0.50;;;0.38;;
57800;SDS011;43627;42.728;23.256;2023-05-02T08:15:06;0.57;;;0.57;;
57800;SDS011;43627;42.728;23.256;2023-05-02T08:17:34;0.70;;;0.50;;
57800;SDS011;43627;42.728;23.256;2023-05-02T08:20:05;0.70;;;0.68;;
57800;SDS011;43627;42.728;23.256;2023-05-02T08:22:32;1.13;;;0.75;;
57800;SDS011;43627;42.728;23.256;2023-05-02T08:24:59;0.55;;;0.55;;
57800;SDS011;43627;42.728;23.256;2023-05-02T08:27:26;0.70;;;0.60;;
57800;SDS011;43627;42.728;23.256;2023-05-02T08:29:53;1.08;;;0.63;;
57800;SDS011;43627;42.728;23.256;2023-05-02T08:32:26;0.70;;;0.70;;
57800;SDS011;43627;42.728;23.256;2023-05-02T08:34:56;1.05;;;0.70;;
57800;SDS011;43627;42.728;23.256;2023-05-02T08:37:22;0.50;;;0.50;;
57800;SDS011;43627;42.728;23.256;2023-05-02T08:39:49;0.73;;;0.60;;
57800;SDS011;43627;42.728;23.256;2023-05-02T08:42:16;0.50;;;0.50;;
57800;SDS011;43627;42.728;23.256;2023-05-02T08:44:42;0.75;;;0.75;;
57800;SDS011;43627;42.728;23.256;2023-05-02T08:47:09;0.70;;;0.55;;
57800;SDS011;43627;42.728;23.256;2023-05-02T08:49:39;0.65;;;0.50;;
57800;SDS011;43627;42.728;23.256;2023-05-02T08:52:07;1.98;;;1.05;;
57800;SDS011;43627;42.728;23.256;2023-05-02T08:54:37;1.00;;;0.85;;
57800;SDS011;43627;42.728;23.256;2023-05-02T08:57:04;0.60;;;0.60;;
57800;SDS011;43627;42.728;23.256;2023-05-02T08:59:32;1.15;;;0.65;;
57800;SDS011;43627;42.728;23.256;2023-05-02T09:02:04;0.52;;;0.52;;
57800;SDS011;43627;42.728;23.256;2023-05-02T09:04:39;0.40;;;0.40;;
57800;SDS011;43627;42.728;23.256;2023-05-02T09:07:08;0.30;;;0.30;;
57800;SDS011;43627;42.728;23.256;2023-05-02T09:09:36;1.25;;;0.60;;
57800;SDS011;43627;42.728;23.256;2023-05-02T09:12:03;0.43;;;0.43;;
57800;SDS011;43627;42.728;23.256;2023-05-02T09:14:29;0.50;;;0.50;;
57800;SDS011;43627;42.728;23.256;2023-05-02T09:16:59;0.60;;;0.60;;
57800;SDS011;43627;42.728;23.256;2023-05-02T09:19:27;0.68;;;0.55;;
57800;SDS011;43627;42.728;23.256;2023-05-02T09:22:00;1.95;;;0.82;;
57800;SDS011;43627;42.728;23.256;2023-05-02T09:24:27;0.43;;;0.30;;
57800;SDS011;43627;42.728;23.256;2023-05-02T09:26:55;0.60;;;0.60;;
57800;SDS011;43627;42.728;23.256;2023-05-02T09:29:29;1.23;;;0.50;;
57800;SDS011;43627;42.728;23.256;2023-05-02T09:32:02;0.45;;;0.40;;
57800;SDS011;43627;42.728;23.256;2023-05-02T09:34:29;1.27;;;0.73;;
57800;SDS011;43627;42.728;23.256;2023-05-02T09:36:56;0.50;;;0.50;;
57800;SDS011;43627;42.728;23.256;2023-05-02T09:39:24;1.45;;;0.88;;
57800;SDS011;43627;42.728;23.256;2023-05-02T09:41:52;0.68;;;0.68;;
57800;SDS011;43627;42.728;23.256;2023-05-02T09:44:20;0.50;;;0.50;;
57800;SDS011;43627;42.728;23.256;2023-05-02T09:49:38;0.60;;;0.57;;
57800;SDS011;43627;42.728;23.256;2023-05-02T09:52:13;0.82;;;0.70;;
57800;SDS011;43627;42.728;23.256;2023-05-02T09:54:42;0.80;;;0.68;;
57800;SDS011;43627;42.728;23.256;2023-05-02T09:57:09;0.45;;;0.45;;
57800;SDS011;43627;42.728;23.256;2023-05-02T09:59:37;3.67;;;1.67;;
57800;SDS011;43627;42.728;23.256;2023-05-02T10:02:05;0.73;;;0.70;;
57800;SDS011;43627;42.728;23.256;2023-05-02T10:04:34;0.40;;;0.40;;
57800;SDS011;43627;42.728;23.256;2023-05-02T10:07:02;1.17;;;0.80;;
57800;SDS011;43627;42.728;23.256;2023-05-02T10:09:31;1.15;;;0.50;;
57800;SDS011;43627;42.728;23.256;2023-05-02T10:12:02;0.90;;;0.40;;
57800;SDS011;43627;42.728;23.256;2023-05-02T10:14:39;0.68;;;0.68;;
57800;SDS011;43627;42.728;23.256;2023-05-02T10:17:12;1.40;;;0.50;;
57800;SDS011;43627;42.728;23.256;2023-05-02T10:22:22;0.70;;;0.60;;
57800;SDS011;43627;42.728;23.256;2023-05-02T10:24:50;0.75;;;0.50;;
57800;SDS011;43627;42.728;23.256;2023-05-02T10:27:18;0.50;;;0.50;;
57800;SDS011;43627;42.728;23.256;2023-05-02T10:29:45;0.50;;;0.50;;
57800;SDS011;43627;42.728;23.256;2023-05-02T10:32:13;0.65;;;0.43;;
57800;SDS011;43627;42.728;23.256;2023-05-02T10:34:44;1.65;;;1.40;;
57800;SDS011;43627;42.728;23.256;2023-05-02T10:37:12;0.40;;;0.40;;
57800;SDS011;43627;42.728;23.256;2023-05-02T10:39:38;4.78;;;1.48;;
57800;SDS011;43627;42.728;23.256;2023-05-02T10:42:05;0.82;;;0.68;;
57800;SDS011;43627;42.728;23.256;2023-05-02T10:44:36;1.33;;;1.05;;
57800;SDS011;43627;42.728;23.256;2023-05-02T10:47:18;0.93;;;0.55;;
57800;SDS011;43627;42.728;23.256;2023-05-02T10:55:14;0.60;;;0.60;;
57800;SDS011;43627;42.728;23.256;2023-05-02T11:00:27;0.52;;;0.35;;
57800;SDS011;43627;42.728;23.256;2023-05-02T11:02:55;1.10;;;0.73;;
57800;SDS011;43627;42.728;23.256;2023-05-02T11:05:23;0.65;;;0.60;;
57800;SDS011;43627;42.728;23.256;2023-05-02T11:10:46;0.30;;;0.30;;
57800;SDS011;43627;42.728;23.256;2023-05-02T11:13:13;0.60;;;0.50;;
57800;SDS011;43627;42.728;23.256;2023-05-02T11:18:10;1.13;;;0.60;;
57800;SDS011;43627;42.728;23.256;2023-05-02T11:25:42;0.50;;;0.45;;
57800;SDS011;43627;42.728;23.256;2023-05-02T11:30:59;7.68;;;1.30;;
57800;SDS011;43627;42.728;23.256;2023-05-02T11:33:29;0.63;;;0.57;;
57800;SDS011;43627;42.728;23.256;2023-05-02T11:35:55;0.57;;;0.50;;
57800;SDS011;43627;42.728;23.256;2023-05-02T11:38:24;0.60;;;0.50;;
57800;SDS011;43627;42.728;23.256;2023-05-02T11:40:56;0.40;;;0.32;;
57800;SDS011;43627;42.728;23.256;2023-05-02T11:43:24;0.73;;;0.60;;
57800;SDS011;43627;42.728;23.256;2023-05-02T11:45:56;0.30;;;0.30;;
57800;SDS011;43627;42.728;23.256;2023-05-02T11:48:25;1.20;;;0.60;;
57800;SDS011;43627;42.728;23.256;2023-05-02T11:50:54;0.65;;;0.40;;
57800;SDS011;43627;42.728;23.256;2023-05-02T11:53:29;0.60;;;0.60;;
57800;SDS011;43627;42.728;23.256;2023-05-02T11:58:23;2.03;;;0.70;;
57800;SDS011;43627;42.728;23.256;2023-05-02T12:00:54;0.80;;;0.40;;
57800;SDS011;43627;42.728;23.256;2023-05-02T12:03:29;0.40;;;0.40;;
57800;SDS011;43627;42.728;23.256;2023-05-02T12:06:11;0.40;;;0.40;;
57800;SDS011;43627;42.728;23.256;2023-05-02T12:08:42;0.80;;;0.70;;
57800;SDS011;43627;42.728;23.256;2023-05-02T12:11:11;1.02;;;0.50;;
57800;SDS011;43627;42.728;23.256;2023-05-02T12:13:44;0.40;;;0.40;;
57800;SDS011;43627;42.728;23.256;2023-05-02T12:16:13;0.88;;;0.52;;
57800;SDS011;43627;42.728;23.256;2023-05-02T12:18:40;1.05;;;0.50;;
57800;SDS011;43627;42.728;23.256;2023-05-02T12:21:07;0.65;;;0.65;;
57800;SDS011;43627;42.728;23.256;2023-05-02T12:23:34;0.20;;;0.20;;
57800;SDS011;43627;42.728;23.256;2023-05-02T12:26:15;1.17;;;0.40;;
57800;SDS011;43627;42.728;23.256;2023-05-02T12:29:02;0.38;;;0.25;;
57800;SDS011;43627;42.728;23.256;2023-05-02T12:31:33;0.77;;;0.77;;
57800;SDS011;43627;42.728;23.256;2023-05-02T12:34:00;0.60;;;0.45;;
57800;SDS011;43627;42.728;23.256;2023-05-02T12:36:27;0.25;;;0.20;;
57800;SDS011;43627;42.728;23.256;2023-05-02T12:38:55;3.30;;;0.57;;
57800;SDS011;43627;42.728;23.256;2023-05-02T12:41:35;1.17;;;0.43;;
57800;SDS011;43627;42.728;23.256;2023-05-02T12:44:06;0.40;;;0.30;;
57800;SDS011;43627;42.728;23.256;2023-05-02T12:46:33;0.30;;;0.30;;
57800;SDS011;43627;42.728;23.256;2023-05-02T12:49:08;1.75;;;1.00;;
57800;SDS011;43627;42.728;23.256;2023-05-02T12:51:38;2.47;;;0.95;;
57800;SDS011;43627;42.728;23.256;2023-05-02T12:54:05;1.45;;;1.08;;
57800;SDS011;43627;42.728;23.256;2023-05-02T12:56:40;0.85;;;0.47;;
57800;SDS011;43627;42.728;23.256;2023-05-02T12:59:09;0.40;;;0.40;;
57800;SDS011;43627;42.728;23.256;2023-05-02T13:01:57;0.45;;;0.45;;
57800;SDS011;43627;42.728;23.256;2023-05-02T13:07:05;0.60;;;0.40;;
57800;SDS011;43627;42.728;23.256;2023-05-02T13:09:32;0.85;;;0.40;;
57800;SDS011;43627;42.728;23.256;2023-05-02T13:11:59;0.75;;;0.75;;
57800;SDS011;43627;42.728;23.256;2023-05-02T13:14:29;0.43;;;0.32;;
57800;SDS011;43627;42.728;23.256;2023-05-02T13:16:56;0.20;;;0.20;;
57800;SDS011;43627;42.728;23.256;2023-05-02T13:19:23;1.38;;;0.75;;
57800;SDS011;43627;42.728;23.256;2023-05-02T13:21:49;0.20;;;0.20;;
57800;SDS011;43627;42.728;23.256;2023-05-02T13:24:16;0.45;;;0.45;;
57800;SDS011;43627;42.728;23.256;2023-05-02T13:26:43;0.50;;;0.50;;
57800;SDS011;43627;42.728;23.256;2023-05-02T13:29:10;0.82;;;0.65;;
57800;SDS011;43627;42.728;23.256;2023-05-02T13:31:37;0.57;;;0.57;;
57800;SDS011;43627;42.728;23.256;2023-05-02T13:34:04;0.82;;;0.45;;
57800;SDS011;43627;42.728;23.256;2023-05-02T13:36:31;0.68;;;0.43;;
57800;SDS011;43627;42.728;23.256;2023-05-02T13:38:57;1.13;;;0.60;;
57800;SDS011;43627;42.728;23.256;2023-05-02T13:41:24;1.27;;;1.00;;
57800;SDS011;43627;42.728;23.256;2023-05-02T13:43:51;3.55;;;0.65;;
57800;SDS011;43627;42.728;23.256;2023-05-02T13:46:18;0.52;;;0.50;;
57800;SDS011;43627;42.728;23.256;2023-05-02T13:48:45;1.00;;;0.88;;
57800;SDS011;43627;42.728;23.256;2023-05-02T13:51:13;0.63;;;0.40;;
57800;SDS011;43627;42.728;23.256;2023-05-02T13:53:40;0.50;;;0.50;;
57800;SDS011;43627;42.728;23.256;2023-05-02T13:56:06;0.73;;;0.65;;
57800;SDS011;43627;42.728;23.256;2023-05-02T13:58:36;0.40;;;0.40;;
57800;SDS011;43627;42.728;23.256;2023-05-02T14:01:03;0.65;;;0.40;;
57800;SDS011;43627;42.728;23.256;2023-05-02T14:03:31;1.33;;;0.60;;
57800;SDS011;43627;42.728;23.256;2023-05-02T14:05:58;0.35;;;0.30;;
57800;SDS011;43627;42.728;23.256;2023-05-02T14:08:25;0.63;;;0.57;;
57800;SDS011;43627;42.728;23.256;2023-05-02T14:10:53;1.77;;;1.42;;
57800;SDS011;43627;42.728;23.256;2023-05-02T14:13:19;2.25;;;1.85;;
57800;SDS011;43627;42.728;23.256;2023-05-02T14:15:46;0.50;;;0.40;;
57800;SDS011;43627;42.728;23.256;2023-05-02T14:18:13;1.13;;;0.40;;
57800;SDS011;43627;42.728;23.256;2023-05-02T14:20:41;1.75;;;0.63;;
57800;SDS011;43627;42.728;23.256;2023-05-02T14:23:08;0.47;;;0.40;;
57800;SDS011;43627;42.728;23.256;2023-05-02T14:25:35;0.85;;;0.32;;
57800;SDS011;43627;42.728;23.256;2023-05-02T14:28:02;1.38;;;0.40;;
57800;SDS011;43627;42.728;23.256;2023-05-02T14:30:30;0.40;;;0.25;;
57800;SDS011;43627;42.728;23.256;2023-05-02T14:32:56;0.88;;;0.65;;
57800;SDS011;43627;42.728;23.256;2023-05-02T14:35:23;0.77;;;0.60;;
57800;SDS011;43627;42.728;23.256;2023-05-02T14:37:50;0.35;;;0.35;;
57800;SDS011;43627;42.728;23.256;2023-05-02T14:40:17;1.55;;;0.63;;
57800;SDS011;43627;42.728;23.256;2023-05-02T14:42:44;0.38;;;0.38;;
57800;SDS011;43627;42.728;23.256;2023-05-02T14:45:10;0.50;;;0.50;;
57800;SDS011;43627;42.728;23.256;2023-05-02T14:47:37;1.75;;;0.82;;
57800;SDS011;43627;42.728;23.256;2023-05-02T14:50:04;1.58;;;0.50;;
57800;SDS011;43627;42.728;23.256;2023-05-02T14:52:32;0.80;;;0.50;;
57800;SDS011;43627;42.728;23.256;2023-05-02T14:54:59;2.35;;;0.60;;
57800;SDS011;43627;42.728;23.256;2023-05-02T14:57:26;1.30;;;0.57;;
57800;SDS011;43627;42.728;23.256;2023-05-02T14:59:53;0.57;;;0.57;;
57800;SDS011;43627;42.728;23.256;2023-05-02T15:02:20;0.52;;;0.52;;
57800;SDS011;43627;42.728;23.256;2023-05-02T15:04:47;0.68;;;0.40;;
57800;SDS011;43627;42.728;23.256;2023-05-02T15:07:13;2.83;;;0.55;;
57800;SDS011;43627;42.728;23.256;2023-05-02T15:09:41;0.63;;;0.63;;
57800;SDS011;43627;42.728;23.256;2023-05-02T15:12:07;0.93;;;0.43;;
57800;SDS011;43627;42.728;23.256;2023-05-02T15:14:34;1.33;;;0.88;;
57800;SDS011;43627;42.728;23.256;2023-05-02T15:17:01;0.60;;;0.30;;
57800;SDS011;43627;42.728;23.256;2023-05-02T15:19:27;0.90;;;0.80;;
57800;SDS011;43627;42.728;23.256;2023-05-02T15:21:54;0.30;;;0.30;;
57800;SDS011;43627;42.728;23.256;2023-05-02T15:24:23;0.75;;;0.55;;
57800;SDS011;43627;42.728;23.256;2023-05-02T15:26:50;0.70;;;0.40;;
57800;SDS011;43627;42.728;23.256;2023-05-02T15:29:17;0.50;;;0.30;;
57800;SDS011;43627;42.728;23.256;2023-05-02T15:31:43;0.40;;;0.40;;
57800;SDS011;43627;42.728;23.256;2023-05-02T15:34:10;0.20;;;0.20;;